Time;durP1;ratioP1;P1;durP2;ratioP2;P2;SDS_P1;SDS_P2;PMS_P1;PMS_P2;Temp;Humidity;BMP_temperature;BMP_pressure;BME280_temperature;BME280_humidity;BME280_pressure;Samples;Min_cycle;Max_cycle;Signal;HPM_P1;HPM_P2
2023/06/16 00:02:01;;;;;;;7.15;4.55;;;17.60;90.20;;;;;;5055208;28;20075;-78
2023/06/16 00:04:27;;;;;;;7.68;4.07;;;17.60;90.20;;;;;;5057343;28;20048;-78
2023/06/16 00:06:53;;;;;;;8.63;4.82;;;17.50;90.30;;;;;;5067196;28;20051;-78
2023/06/16 00:09:22;;;;;;;7.97;4.18;;;17.50;90.50;;;;;;5057255;28;20048;-78
2023/06/16 00:11:48;;;;;;;8.57;4.80;;;17.50;90.50;;;;;;5064645;28;20040;-79
2023/06/16 00:14:14;;;;;;;7.53;4.43;;;17.50;90.80;;;;;;5063036;28;20055;-78
2023/06/16 00:16:40;;;;;;;8.48;4.70;;;17.40;90.70;;;;;;5054254;28;20047;-78
2023/06/16 00:19:06;;;;;;;6.70;4.30;;;17.40;90.70;;;;;;5043155;28;20045;-78
2023/06/16 00:21:38;;;;;;;6.57;4.25;;;17.40;90.80;;;;;;5056724;28;20468;-78
2023/06/16 00:24:06;;;;;;;8.40;4.88;;;17.40;91.00;;;;;;5059306;28;20236;-78
2023/06/16 00:26:31;;;;;;;7.65;4.65;;;17.40;91.10;;;;;;5028009;28;20509;-78
2023/06/16 00:28:57;;;;;;;6.68;4.38;;;17.40;91.20;;;;;;5067487;28;20138;-79
2023/06/16 00:31:25;;;;;;;7.30;4.93;;;17.30;91.40;;;;;;5055598;28;20055;-78
2023/06/16 00:33:52;;;;;;;7.40;4.45;;;17.20;91.40;;;;;;5068606;28;20560;-78
2023/06/16 00:36:17;;;;;;;7.82;4.55;;;17.20;91.60;;;;;;5044130;28;20059;-79
2023/06/16 00:38:43;;;;;;;9.77;4.88;;;17.10;91.70;;;;;;5062539;28;20696;-78
2023/06/16 00:41:09;;;;;;;7.85;5.03;;;17.10;91.90;;;;;;5040323;28;20051;-78
2023/06/16 00:43:35;;;;;;;7.43;4.97;;;17.00;92.10;;;;;;5039101;28;20579;-78
2023/06/16 00:46:00;;;;;;;8.27;4.80;;;16.90;92.40;;;;;;5043631;28;20055;-77
2023/06/16 00:48:26;;;;;;;7.13;4.63;;;16.90;92.40;;;;;;5032451;28;20052;-79
2023/06/16 00:50:53;;;;;;;7.90;4.47;;;16.80;92.60;;;;;;5080009;28;20082;-78
2023/06/16 00:53:19;;;;;;;9.40;5.63;;;16.80;92.70;;;;;;5081380;28;20652;-77
2023/06/16 00:55:46;;;;;;;11.48;5.50;;;16.80;92.80;;;;;;5089245;28;20043;-77
2023/06/16 00:58:11;;;;;;;8.30;6.05;;;16.70;92.90;;;;;;5056555;28;20067;-77
2023/06/16 01:00:38;;;;;;;9.85;6.07;;;16.70;93.20;;;;;;5066536;28;20048;-79
2023/06/16 01:03:04;;;;;;;8.80;5.95;;;16.60;93.20;;;;;;5065336;28;20057;-77
2023/06/16 01:05:30;;;;;;;7.28;5.70;;;16.60;93.50;;;;;;5067862;28;20415;-77
2023/06/16 01:08:11;;;;;;;8.40;5.25;;;16.60;93.70;;;;;;5060008;28;20123;-78
2023/06/16 01:11:17;;;;;;;7.90;5.57;;;16.50;93.60;;;;;;5060639;28;20044;-77
2023/06/16 01:13:59;;;;;;;9.13;5.50;;;16.50;93.70;;;;;;5096091;28;20039;-77
2023/06/16 01:16:28;;;;;;;10.70;5.72;;;16.40;93.90;;;;;;5056617;28;20118;-77
2023/06/16 01:18:54;;;;;;;11.75;5.28;;;16.40;93.90;;;;;;5055558;28;20048;-78
2023/06/16 01:21:51;;;;;;;6.72;5.32;;;16.40;94.00;;;;;;5032490;28;20040;-77
2023/06/16 01:24:18;;;;;;;8.75;5.50;;;16.40;94.10;;;;;;5030510;28;20864;-78
2023/06/16 01:26:49;;;;;;;9.18;5.43;;;16.40;94.20;;;;;;5036500;28;20047;-78
2023/06/16 01:29:15;;;;;;;8.85;5.30;;;16.30;94.20;;;;;;5015547;28;20048;-77
2023/06/16 01:31:41;;;;;;;9.65;5.40;;;16.30;94.50;;;;;;5023192;28;20361;-77
2023/06/16 01:34:08;;;;;;;7.10;5.15;;;16.20;94.50;;;;;;5083580;28;20035;-78
2023/06/16 01:36:35;;;;;;;8.88;5.68;;;16.20;94.60;;;;;;5059392;28;20134;-77
2023/06/16 01:39:01;;;;;;;7.38;5.20;;;16.20;94.90;;;;;;5040479;28;20080;-78
2023/06/16 01:41:27;;;;;;;11.93;6.45;;;16.20;94.90;;;;;;5085857;28;20901;-77
2023/06/16 01:43:53;;;;;;;8.73;5.57;;;16.20;94.80;;;;;;5073448;28;20076;-77
2023/06/16 01:46:18;;;;;;;10.63;5.55;;;16.20;94.80;;;;;;5049426;28;20116;-77
2023/06/16 01:48:44;;;;;;;7.55;5.38;;;16.20;94.90;;;;;;5044011;28;20056;-77
2023/06/16 01:51:10;;;;;;;12.45;6.65;;;16.20;94.90;;;;;;5032409;28;20052;-78
2023/06/16 01:53:36;;;;;;;10.00;5.30;;;16.20;95.00;;;;;;5052895;28;20047;-77
2023/06/16 01:56:01;;;;;;;8.32;5.70;;;16.10;95.10;;;;;;5063898;28;20055;-77
2023/06/16 01:58:27;;;;;;;8.90;5.65;;;16.10;95.10;;;;;;5063686;28;20048;-77
2023/06/16 02:01:04;;;;;;;6.18;4.88;;;16.10;95.20;;;;;;5029944;28;20048;-77
2023/06/16 02:03:35;;;;;;;9.02;5.43;;;16.10;95.30;;;;;;5064663;28;20042;-77
2023/06/16 02:06:05;;;;;;;7.38;5.22;;;16.10;95.30;;;;;;5076031;28;20113;-77
2023/06/16 02:08:31;;;;;;;9.43;4.97;;;16.10;95.50;;;;;;5065707;28;20046;-77
2023/06/16 02:10:56;;;;;;;11.57;4.53;;;16.10;95.20;;;;;;5047721;28;20044;-77
2023/06/16 02:13:22;;;;;;;7.25;5.55;;;16.10;95.30;;;;;;5049404;28;20123;-77
2023/06/16 02:15:48;;;;;;;8.48;5.07;;;16.10;95.20;;;;;;5074443;28;20701;-77
2023/06/16 02:18:13;;;;;;;9.20;4.85;;;16.10;95.20;;;;;;5073689;28;20047;-77
2023/06/16 02:20:39;;;;;;;8.43;4.82;;;16.10;95.00;;;;;;5064888;28;20043;-77
2023/06/16 02:23:05;;;;;;;7.25;5.15;;;16.00;95.00;;;;;;5061728;28;20036;-77
2023/06/16 02:25:31;;;;;;;8.38;5.55;;;16.10;95.10;;;;;;5061027;28;20044;-77
2023/06/16 02:27:57;;;;;;;7.85;5.22;;;16.10;95.10;;;;;;5071780;28;20074;-77
2023/06/16 02:30:23;;;;;;;7.65;5.18;;;16.10;95.20;;;;;;5058654;28;20050;-78
2023/06/16 02:32:49;;;;;;;7.97;5.25;;;16.00;95.20;;;;;;5057809;28;20040;-77
2023/06/16 02:35:15;;;;;;;7.78;4.97;;;16.00;95.20;;;;;;5050581;28;20045;-78
2023/06/16 02:37:41;;;;;;;10.18;5.43;;;15.90;95.30;;;;;;5080496;28;20043;-77
2023/06/16 02:40:09;;;;;;;10.70;5.55;;;15.90;95.30;;;;;;5030784;28;20047;-77
2023/06/16 02:42:35;;;;;;;9.68;4.55;;;16.00;95.40;;;;;;5069059;28;20495;-78
2023/06/16 02:45:01;;;;;;;6.93;4.95;;;16.00;95.30;;;;;;5061853;28;20119;-78
2023/06/16 02:47:27;;;;;;;10.70;5.30;;;16.00;95.30;;;;;;5055259;28;20055;-78
2023/06/16 02:49:54;;;;;;;9.80;5.00;;;16.00;95.30;;;;;;5075866;28;20044;-77
2023/06/16 02:52:21;;;;;;;;;;;16.00;95.30;;;;;;5068379;28;20048;-77
2023/06/16 02:54:46;;;;;;;7.93;5.10;;;16.10;95.40;;;;;;5062021;28;20606;-77
2023/06/16 02:57:12;;;;;;;8.10;5.05;;;16.00;95.60;;;;;;5045253;28;20061;-77
2023/06/16 02:59:38;;;;;;;9.82;5.68;;;16.00;95.70;;;;;;5039196;28;20057;-77
2023/06/16 03:02:04;;;;;;;7.88;5.45;;;15.90;95.80;;;;;;5043558;28;20045;-77
2023/06/16 03:04:30;;;;;;;10.13;5.30;;;15.90;96.30;;;;;;5027312;28;20417;-79
2023/06/16 03:06:57;;;;;;;10.20;5.95;;;15.90;95.90;;;;;;5017640;28;20049;-77
2023/06/16 03:09:26;;;;;;;9.77;5.53;;;15.90;96.10;;;;;;5045917;28;20049;-78
2023/06/16 03:11:53;;;;;;;9.23;5.63;;;15.80;96.20;;;;;;5044112;28;20053;-77
2023/06/16 03:14:20;;;;;;;11.10;5.47;;;15.80;96.20;;;;;;5032347;28;20124;-77
2023/06/16 03:16:50;;;;;;;12.27;5.40;;;15.80;96.40;;;;;;5045659;28;20071;-77
2023/06/16 03:19:16;;;;;;;8.98;5.65;;;15.80;96.40;;;;;;5031418;28;20052;-77
2023/06/16 03:21:44;;;;;;;9.15;5.63;;;15.80;96.60;;;;;;5039950;28;20132;-77
2023/06/16 03:24:13;;;;;;;8.50;5.60;;;15.80;96.50;;;;;;5066949;28;20047;-77
2023/06/16 03:26:39;;;;;;;10.07;5.32;;;15.90;96.50;;;;;;5035409;28;20048;-77
2023/06/16 03:29:06;;;;;;;11.27;5.40;;;15.90;96.40;;;;;;5033049;28;20076;-77
2023/06/16 03:31:32;;;;;;;8.60;5.38;;;15.90;96.60;;;;;;5050098;28;20428;-78
2023/06/16 03:33:58;;;;;;;10.68;6.20;;;15.90;96.60;;;;;;5047047;28;20081;-77
2023/06/16 03:36:26;;;;;;;9.65;5.65;;;15.80;96.60;;;;;;5033438;28;20049;-77
2023/06/16 03:38:51;;;;;;;10.82;5.47;;;15.80;96.70;;;;;;5039540;28;20051;-77
2023/06/16 03:41:17;;;;;;;7.82;5.72;;;15.80;96.80;;;;;;5013635;28;20033;-77
2023/06/16 03:43:43;;;;;;;10.05;5.68;;;15.80;96.90;;;;;;5029150;28;20091;-77
2023/06/16 03:46:09;;;;;;;9.95;5.72;;;15.80;97.10;;;;;;5034908;28;20540;-77
2023/06/16 03:48:35;;;;;;;8.23;5.55;;;15.80;97.20;;;;;;4991498;28;20056;-77
2023/06/16 03:51:00;;;;;;;11.10;6.22;;;15.80;97.20;;;;;;5017457;28;20056;-77
2023/06/16 03:53:27;;;;;;;7.10;5.55;;;15.80;97.30;;;;;;5037150;28;20040;-77
2023/06/16 03:55:52;;;;;;;9.50;5.40;;;15.70;97.50;;;;;;5014067;28;20053;-77
2023/06/16 03:58:18;;;;;;;7.35;5.65;;;15.70;97.40;;;;;;5038742;28;20053;-77
2023/06/16 04:00:44;;;;;;;11.63;6.15;;;15.80;97.40;;;;;;5051305;28;20060;-77
2023/06/16 04:03:11;;;;;;;12.52;5.50;;;15.80;97.80;;;;;;5043179;28;20384;-77
2023/06/16 04:05:37;;;;;;;10.52;6.15;;;15.70;97.80;;;;;;5033369;28;20040;-77
2023/06/16 04:08:03;;;;;;;8.30;6.13;;;15.80;98.00;;;;;;5049488;28;20052;-78
2023/06/16 04:10:29;;;;;;;10.18;5.85;;;15.80;97.70;;;;;;5056614;28;20377;-77
2023/06/16 04:12:55;;;;;;;9.40;5.40;;;15.90;97.70;;;;;;5050060;28;20044;-77
2023/06/16 04:15:21;;;;;;;13.57;6.32;;;15.90;97.90;;;;;;5046109;28;20037;-77
2023/06/16 04:17:46;;;;;;;10.73;6.32;;;15.90;97.60;;;;;;5068174;28;20036;-77
2023/06/16 04:20:12;;;;;;;9.45;6.30;;;15.90;97.60;;;;;;5065133;28;20595;-77
2023/06/16 04:22:38;;;;;;;11.73;8.07;;;15.90;97.70;;;;;;5064727;28;20095;-77
2023/06/16 04:25:05;;;;;;;13.27;7.53;;;15.90;97.70;;;;;;5030705;28;20106;-77
2023/06/16 04:27:32;;;;;;;13.55;8.60;;;15.90;97.70;;;;;;5033889;28;20424;-77
2023/06/16 04:29:58;;;;;;;15.38;8.80;;;15.90;97.60;;;;;;5068479;28;20044;-77
2023/06/16 04:32:23;;;;;;;13.40;8.68;;;15.90;97.60;;;;;;5054590;28;20103;-77
2023/06/16 04:34:51;;;;;;;9.80;7.35;;;15.90;97.70;;;;;;5030437;28;20175;-77
2023/06/16 04:37:17;;;;;;;15.07;7.35;;;16.00;97.60;;;;;;5067527;28;20037;-77
2023/06/16 04:39:43;;;;;;;12.75;7.15;;;16.00;97.70;;;;;;5059204;28;20109;-77
2023/06/16 04:42:09;;;;;;;11.13;7.03;;;16.00;97.70;;;;;;5052835;28;20040;-77
2023/06/16 04:44:36;;;;;;;11.60;6.45;;;15.90;97.80;;;;;;5057035;28;20036;-77
2023/06/16 04:47:02;;;;;;;8.77;5.85;;;15.90;97.50;;;;;;5036808;28;20070;-77
2023/06/16 04:49:28;;;;;;;9.55;5.57;;;16.00;97.50;;;;;;5047981;28;20037;-77
2023/06/16 04:51:54;;;;;;;9.30;5.95;;;16.00;97.40;;;;;;5015992;28;20117;-78
2023/06/16 04:54:20;;;;;;;9.90;6.10;;;16.00;97.40;;;;;;5069923;28;20546;-77
2023/06/16 04:56:46;;;;;;;9.95;5.63;;;16.00;97.40;;;;;;5051181;28;20052;-77
2023/06/16 04:59:12;;;;;;;9.90;5.80;;;16.10;97.40;;;;;;5050782;28;20060;-78
2023/06/16 05:01:39;;;;;;;7.65;5.45;;;16.10;97.30;;;;;;5082120;28;20749;-78
2023/06/16 05:04:04;;;;;;;9.88;5.45;;;16.10;97.30;;;;;;5071850;28;20058;-78
2023/06/16 05:06:33;;;;;;;10.02;4.78;;;16.10;97.30;;;;;;5084442;28;20074;-79
2023/06/16 05:08:59;;;;;;;10.25;5.40;;;16.10;97.40;;;;;;5035529;28;20106;-78
2023/06/16 05:11:25;;;;;;;7.15;5.63;;;16.20;97.60;;;;;;5058091;28;20060;-77
2023/06/16 05:13:55;;;;;;;9.18;5.45;;;16.10;98.40;;;;;;5071550;28;20054;-77
2023/06/16 05:16:21;;;;;;;8.00;5.35;;;16.20;98.50;;;;;;5075593;28;20122;-77
2023/06/16 05:18:47;;;;;;;9.88;5.15;;;16.20;98.70;;;;;;5051911;28;20422;-77
2023/06/16 05:21:12;;;;;;;8.18;5.70;;;16.20;99.20;;;;;;5052934;28;20040;-77
2023/06/16 05:23:38;;;;;;;10.68;5.45;;;16.30;99.80;;;;;;5071922;28;20040;-77
2023/06/16 05:26:05;;;;;;;9.43;6.32;;;16.30;99.90;;;;;;5078371;28;20037;-77
2023/06/16 05:28:31;;;;;;;9.80;5.50;;;16.30;99.90;;;;;;5023398;28;20159;-77
2023/06/16 05:30:56;;;;;;;7.95;5.35;;;16.30;99.90;;;;;;5066747;28;20123;-77
2023/06/16 05:33:22;;;;;;;9.43;6.07;;;16.30;99.90;;;;;;5060218;28;20055;-77
2023/06/16 05:35:48;;;;;;;8.13;5.47;;;16.30;99.90;;;;;;5076917;28;20044;-77
2023/06/16 05:38:14;;;;;;;9.70;5.97;;;16.20;99.90;;;;;;5050285;28;20054;-77
2023/06/16 05:40:39;;;;;;;8.50;6.15;;;16.20;99.90;;;;;;5074315;28;20490;-77
2023/06/16 05:43:05;;;;;;;12.40;6.25;;;16.20;99.90;;;;;;5056992;28;20059;-77
2023/06/16 05:45:31;;;;;;;9.32;6.85;;;16.20;99.90;;;;;;5057158;28;20060;-77
2023/06/16 05:47:57;;;;;;;9.82;6.25;;;16.20;99.90;;;;;;5080022;28;20051;-77
2023/06/16 05:50:23;;;;;;;8.63;6.72;;;16.20;99.90;;;;;;5061135;28;20098;-78
2023/06/16 05:52:48;;;;;;;10.80;6.40;;;16.20;99.90;;;;;;5057350;28;20032;-77
2023/06/16 05:55:14;;;;;;;12.93;6.97;;;16.20;99.90;;;;;;5072940;28;20032;-77
2023/06/16 05:57:40;;;;;;;11.63;6.10;;;16.20;99.90;;;;;;5037362;28;20044;-77
2023/06/16 06:00:07;;;;;;;11.23;5.50;;;16.20;99.90;;;;;;5019917;28;20544;-77
2023/06/16 06:02:32;;;;;;;7.65;6.13;;;16.10;99.90;;;;;;5043883;28;20044;-77
2023/06/16 06:04:58;;;;;;;14.82;8.93;;;16.20;99.90;;;;;;5075720;28;20217;-77
2023/06/16 06:07:25;;;;;;;9.95;7.45;;;16.20;99.90;;;;;;5070473;28;20044;-77
2023/06/16 06:09:51;;;;;;;9.05;6.82;;;16.00;99.90;;;;;;5064059;28;20040;-77
2023/06/16 06:12:17;;;;;;;10.07;7.05;;;16.00;99.90;;;;;;5059808;28;20663;-78
2023/06/16 06:14:43;;;;;;;12.18;7.18;;;15.90;99.90;;;;;;5052109;28;20103;-76
2023/06/16 06:17:09;;;;;;;9.35;6.95;;;15.80;99.90;;;;;;5067590;28;20055;-78
2023/06/16 06:19:34;;;;;;;8.75;6.22;;;16.00;99.90;;;;;;5058953;28;20040;-76
2023/06/16 06:22:00;;;;;;;9.70;6.70;;;16.00;99.90;;;;;;5082816;28;20731;-76
2023/06/16 06:24:26;;;;;;;14.13;7.07;;;16.00;99.90;;;;;;5067900;28;20031;-76
2023/06/16 06:26:52;;;;;;;8.88;5.93;;;16.10;99.90;;;;;;5073164;28;20125;-78
2023/06/16 06:29:17;;;;;;;13.82;6.70;;;16.10;99.90;;;;;;5045256;28;20554;-77
2023/06/16 06:31:43;;;;;;;8.52;6.18;;;16.20;99.90;;;;;;5062921;28;20052;-77
2023/06/16 06:34:09;;;;;;;11.07;7.43;;;16.20;99.90;;;;;;5086208;28;20047;-77
2023/06/16 06:36:39;;;;;;;11.93;7.40;;;16.20;99.90;;;;;;5065223;28;20372;-77
2023/06/16 06:39:05;;;;;;;11.50;7.72;;;16.20;99.90;;;;;;5080592;28;20105;-77
2023/06/16 06:41:31;;;;;;;11.82;7.80;;;16.10;99.90;;;;;;5042334;28;20425;-77
2023/06/16 06:43:56;;;;;;;10.90;7.82;;;16.00;99.90;;;;;;5073330;28;20036;-77
2023/06/16 06:46:23;;;;;;;13.00;8.05;;;16.10;99.90;;;;;;5080262;28;20051;-77
2023/06/16 06:48:49;;;;;;;13.75;7.78;;;16.20;99.90;;;;;;5073057;28;20036;-77
2023/06/16 06:51:14;;;;;;;17.38;8.30;;;16.30;99.90;;;;;;5052966;28;20101;-76
2023/06/16 06:53:40;;;;;;;12.57;7.85;;;16.40;99.90;;;;;;5057619;28;20043;-77
2023/06/16 06:56:06;;;;;;;12.77;6.95;;;16.10;99.90;;;;;;5060493;28;20044;-76
2023/06/16 06:58:35;;;;;;;14.18;7.10;;;16.20;99.90;;;;;;5058110;28;20056;-76
2023/06/16 07:01:01;;;;;;;12.27;6.82;;;16.30;99.90;;;;;;5058292;28;20377;-77
2023/06/16 07:03:27;;;;;;;10.95;7.05;;;16.40;99.90;;;;;;5075652;28;20040;-77
2023/06/16 07:05:53;;;;;;;9.90;6.57;;;16.50;99.90;;;;;;5084033;28;20066;-77
2023/06/16 07:08:19;;;;;;;13.63;7.53;;;16.30;99.90;;;;;;5069871;28;20645;-76
2023/06/16 07:10:45;;;;;;;11.40;7.15;;;16.40;99.90;;;;;;5090338;28;20174;-77
2023/06/16 07:13:10;;;;;;;10.55;7.07;;;16.40;99.90;;;;;;5063047;28;20049;-77
2023/06/16 07:15:36;;;;;;;9.98;6.45;;;16.50;99.90;;;;;;5058851;28;20071;-77
2023/06/16 07:18:02;;;;;;;12.30;7.03;;;16.50;99.90;;;;;;5054264;28;20713;-77
2023/06/16 07:20:29;;;;;;;11.02;6.38;;;16.50;99.90;;;;;;5067251;28;20499;-77
2023/06/16 07:22:55;;;;;;;8.70;6.03;;;16.60;99.90;;;;;;5070677;28;20098;-77
2023/06/16 07:25:21;;;;;;;11.52;5.60;;;16.70;99.90;;;;;;5058456;28;20044;-77
2023/06/16 07:27:46;;;;;;;8.68;6.00;;;16.80;99.90;;;;;;5032289;28;20036;-76
2023/06/16 07:30:12;;;;;;;8.88;6.40;;;16.80;99.90;;;;;;5063398;28;20048;-77
2023/06/16 07:32:39;;;;;;;12.88;6.00;;;16.80;99.90;;;;;;5085348;28;20050;-77
2023/06/16 07:35:06;;;;;;;8.50;6.50;;;16.80;99.90;;;;;;5069117;28;20074;-76
2023/06/16 07:37:32;;;;;;;9.05;6.45;;;16.80;99.90;;;;;;5045441;28;20056;-76
2023/06/16 07:39:58;;;;;;;11.93;8.27;;;16.70;99.90;;;;;;5080357;28;20039;-76
2023/06/16 07:42:24;;;;;;;10.02;7.65;;;16.70;99.90;;;;;;5073435;28;20369;-77
2023/06/16 07:44:51;;;;;;;12.68;7.10;;;16.80;99.90;;;;;;5055667;28;20460;-76
2023/06/16 07:47:16;;;;;;;11.88;7.10;;;16.60;99.90;;;;;;5045776;28;20123;-76
2023/06/16 07:49:42;;;;;;;13.32;7.20;;;16.60;99.90;;;;;;5058874;28;20498;-76
2023/06/16 07:52:09;;;;;;;12.88;7.88;;;16.90;99.90;;;;;;5041745;28;20143;-76
2023/06/16 07:54:35;;;;;;;11.77;7.40;;;17.10;99.90;;;;;;5075253;28;20048;-76
2023/06/16 07:57:00;;;;;;;14.80;7.75;;;17.10;99.90;;;;;;5047598;28;20064;-76
2023/06/16 07:59:28;;;;;;;13.10;7.78;;;17.00;99.90;;;;;;5043149;28;20060;-76
2023/06/16 08:01:53;;;;;;;13.38;7.10;;;17.00;99.90;;;;;;5099762;28;20360;-75
2023/06/16 08:04:19;;;;;;;11.93;6.60;;;17.10;99.90;;;;;;5082149;28;20066;-81
2023/06/16 08:06:45;;;;;;;8.93;5.57;;;17.20;99.90;;;;;;5090956;28;20044;-81
2023/06/16 08:09:11;;;;;;;9.15;4.93;;;17.30;99.90;;;;;;5068075;28;20075;-81
2023/06/16 08:11:37;;;;;;;11.15;6.07;;;17.40;99.90;;;;;;5060087;28;20040;-82
2023/06/16 08:14:03;;;;;;;12.88;5.57;;;17.50;99.90;;;;;;5043583;28;20050;-82
2023/06/16 08:16:29;;;;;;;12.25;6.20;;;17.60;99.90;;;;;;5058491;28;21112;-83
2023/06/16 08:18:56;;;;;;;11.50;6.00;;;17.70;99.90;;;;;;5071906;28;20190;-83
2023/06/16 08:21:22;;;;;;;10.50;5.68;;;17.80;99.90;;;;;;5065259;28;20730;-83
2023/06/16 08:23:48;;;;;;;10.50;6.15;;;17.90;99.90;;;;;;5020430;28;20052;-82
2023/06/16 08:26:14;;;;;;;10.20;6.25;;;17.80;99.90;;;;;;5063678;28;20098;-82
2023/06/16 08:28:40;;;;;;;13.77;6.28;;;17.90;99.90;;;;;;5060802;28;20048;-82
2023/06/16 08:31:06;;;;;;;9.90;5.22;;;18.00;99.90;;;;;;5094671;28;20105;-83
2023/06/16 08:33:32;;;;;;;11.65;6.03;;;18.00;99.90;;;;;;5028111;28;20048;-82
2023/06/16 08:35:58;;;;;;;9.77;5.47;;;18.10;99.90;;;;;;5084579;28;20467;-83
2023/06/16 08:38:24;;;;;;;9.70;5.60;;;18.20;99.90;;;;;;5047769;28;20053;-83
2023/06/16 08:40:50;;;;;;;11.80;5.25;;;18.20;99.90;;;;;;5094991;28;20054;-83
2023/06/16 08:43:15;;;;;;;9.82;5.72;;;18.20;99.90;;;;;;5062738;28;20457;-83
2023/06/16 08:45:42;;;;;;;9.75;5.25;;;18.20;99.90;;;;;;5074856;28;20044;-83
2023/06/16 08:48:10;;;;;;;12.00;4.93;;;18.30;99.90;;;;;;5068260;28;20079;-83
2023/06/16 08:50:36;;;;;;;;;;;18.40;99.90;;;;;;5075803;28;20047;-83
2023/06/16 08:53:02;;;;;;;10.55;5.22;;;18.40;99.90;;;;;;5074681;28;19916;-83
2023/06/16 08:55:29;;;;;;;10.57;5.78;;;18.40;99.90;;;;;;5057470;28;20126;-83
2023/06/16 08:57:55;;;;;;;14.15;5.10;;;18.40;99.90;;;;;;5055665;28;20757;-84
2023/06/16 09:00:21;;;;;;;9.93;5.13;;;18.30;99.90;;;;;;5067876;28;20053;-83
2023/06/16 09:02:53;;;;;;;10.63;5.07;;;18.40;99.90;;;;;;5056393;28;20036;-82
2023/06/16 09:05:19;;;;;;;9.18;4.68;;;18.40;99.90;;;;;;5042372;28;20037;-82
2023/06/16 09:07:45;;;;;;;9.95;4.38;;;18.40;99.90;;;;;;5041399;28;20051;-83
2023/06/16 09:10:11;;;;;;;10.85;4.72;;;18.60;99.90;;;;;;5042244;28;20041;-83
2023/06/16 09:12:37;;;;;;;6.10;4.13;;;18.60;99.90;;;;;;5031801;28;20044;-83
2023/06/16 09:15:08;;;;;;;9.13;4.72;;;18.70;99.90;;;;;;5070622;28;20044;-83
2023/06/16 09:17:37;;;;;;;8.50;4.40;;;18.70;99.90;;;;;;5052481;28;20350;-83
2023/06/16 09:20:06;;;;;;;8.02;4.28;;;18.70;99.90;;;;;;5073252;28;20048;-83
2023/06/16 09:22:32;;;;;;;8.45;4.07;;;18.70;99.90;;;;;;5058891;28;20508;-83
2023/06/16 09:24:59;;;;;;;9.00;4.50;;;18.60;99.90;;;;;;5057380;28;20359;-83
2023/06/16 09:27:46;;;;;;;7.78;4.13;;;18.80;99.90;;;;;;5067814;28;20052;-83
2023/06/16 09:30:18;;;;;;;5.88;3.90;;;18.80;99.90;;;;;;5081045;28;20048;-83
2023/06/16 09:32:52;;;;;;;6.30;4.03;;;18.70;99.90;;;;;;5068693;28;20037;-84
2023/06/16 09:35:18;;;;;;;6.75;4.30;;;18.80;99.90;;;;;;5049706;28;20159;-83
2023/06/16 09:37:44;;;;;;;7.90;4.10;;;18.80;99.90;;;;;;5059291;28;20104;-83
2023/06/16 09:40:11;;;;;;;6.25;3.95;;;18.80;99.90;;;;;;5081183;28;20059;-84
2023/06/16 09:42:38;;;;;;;6.95;4.30;;;18.80;99.90;;;;;;5049258;28;20045;-83
2023/06/16 09:45:12;;;;;;;8.02;4.80;;;18.90;99.90;;;;;;5058731;28;20041;-83
2023/06/16 09:47:38;;;;;;;5.63;4.20;;;18.90;99.90;;;;;;5043111;28;20381;-82
2023/06/16 09:50:08;;;;;;;7.53;4.05;;;18.90;99.90;;;;;;5073117;28;20040;-83
2023/06/16 09:52:35;;;;;;;6.88;4.32;;;18.90;99.90;;;;;;5044156;28;20056;-82
2023/06/16 09:55:00;;;;;;;6.45;3.63;;;19.00;99.90;;;;;;5064273;28;20051;-82
2023/06/16 09:57:27;;;;;;;5.82;3.90;;;19.00;99.90;;;;;;5063386;28;20474;-83
2023/06/16 09:59:53;;;;;;;5.65;3.50;;;19.00;99.90;;;;;;5035919;28;20048;-82
2023/06/16 10:02:18;;;;;;;7.25;3.40;;;19.10;99.90;;;;;;5074576;28;20048;-82
2023/06/16 10:04:44;;;;;;;4.88;3.17;;;19.20;99.80;;;;;;5054101;28;20033;-82
2023/06/16 10:07:11;;;;;;;6.40;3.67;;;19.10;99.80;;;;;;5091011;28;20125;-82
2023/06/16 10:09:44;;;;;;;5.85;3.42;;;19.20;99.90;;;;;;5090763;28;20519;-83
2023/06/16 10:12:12;;;;;;;7.80;4.22;;;19.30;99.50;;;;;;5044459;28;20040;-83
2023/06/16 10:14:37;;;;;;;8.90;4.28;;;19.10;99.50;;;;;;5069478;28;20041;-82
2023/06/16 10:17:05;;;;;;;6.15;4.35;;;19.20;99.80;;;;;;5068432;28;20040;-82
2023/06/16 10:19:30;;;;;;;5.70;4.03;;;19.10;99.80;;;;;;5049409;28;20072;-83
2023/06/16 10:21:56;;;;;;;9.40;4.05;;;19.20;99.60;;;;;;5035807;28;20037;-83
2023/06/16 10:24:23;;;;;;;6.60;3.55;;;19.10;99.60;;;;;;5048061;28;20497;-83
2023/06/16 10:26:49;;;;;;;6.40;4.30;;;19.20;99.50;;;;;;5062277;28;20414;-82
2023/06/16 10:29:16;;;;;;;6.03;4.10;;;19.20;99.00;;;;;;5073976;28;20052;-83
2023/06/16 10:31:45;;;;;;;6.85;3.60;;;19.30;99.00;;;;;;5053271;28;20056;-82
2023/06/16 10:34:23;;;;;;;7.50;4.28;;;19.40;98.80;;;;;;5069469;28;20085;-83
2023/06/16 10:36:51;;;;;;;9.18;4.95;;;19.30;98.80;;;;;;5050211;28;20056;-83
2023/06/16 10:39:17;;;;;;;9.00;5.10;;;19.40;99.30;;;;;;5073005;28;20052;-84
2023/06/16 10:41:57;;;;;;;14.20;4.38;;;19.60;98.50;;;;;;5040537;28;20168;-84
2023/06/16 10:44:26;;;;;;;6.85;4.20;;;19.70;98.50;;;;;;5048657;28;20052;-84
2023/06/16 10:47:10;;;;;;;9.70;4.28;;;19.80;98.30;;;;;;5054691;28;20341;-84
2023/06/16 10:49:51;;;;;;;10.55;4.63;;;19.90;97.70;;;;;;5090016;28;20105;-83
2023/06/16 10:52:17;;;;;;;9.98;4.47;;;19.80;97.80;;;;;;5073523;28;20059;-82
2023/06/16 10:54:44;;;;;;;7.95;4.10;;;19.90;97.10;;;;;;5036540;28;20044;-84
2023/06/16 10:57:11;;;;;;;7.03;4.10;;;20.00;97.30;;;;;;5053938;28;20052;-85
2023/06/16 11:00:25;;;;;;;8.48;4.75;;;20.00;97.20;;;;;;5034928;28;20054;-84
2023/06/16 11:02:53;;;;;;;11.52;4.40;;;20.00;97.10;;;;;;5034791;28;20122;-83
2023/06/16 11:05:22;;;;;;;10.88;4.72;;;19.90;97.30;;;;;;5041353;28;20101;-84
2023/06/16 11:08:01;;;;;;;7.47;4.32;;;19.90;97.50;;;;;;5020289;28;20095;-83
2023/06/16 11:10:27;;;;;;;8.98;5.10;;;19.80;97.50;;;;;;5049694;28;20041;-83
2023/06/16 11:12:53;;;;;;;7.15;4.78;;;19.90;97.50;;;;;;5045618;28;20053;-84
2023/06/16 11:15:19;;;;;;;7.40;4.50;;;19.80;97.20;;;;;;5034541;28;20040;-83
2023/06/16 11:17:47;;;;;;;6.88;4.15;;;19.80;96.70;;;;;;5028356;28;20331;-83
2023/06/16 11:20:13;;;;;;;6.80;4.47;;;19.90;97.20;;;;;;5060185;28;20059;-84
2023/06/16 11:22:39;;;;;;;9.15;4.88;;;20.00;96.90;;;;;;5038122;28;20045;-83
2023/06/16 11:25:05;;;;;;;8.85;4.32;;;20.00;96.90;;;;;;5040026;28;20056;-85
2023/06/16 11:27:31;;;;;;;9.40;4.82;;;20.00;96.20;;;;;;5056995;28;20100;-84
2023/06/16 11:29:58;;;;;;;7.38;4.57;;;20.00;96.40;;;;;;5028402;28;20044;-84
2023/06/16 11:32:24;;;;;;;7.45;4.20;;;20.00;96.30;;;;;;5026092;28;20055;-83
2023/06/16 11:34:56;;;;;;;7.28;5.20;;;20.00;96.40;;;;;;5035169;28;20634;-84
2023/06/16 11:37:38;;;;;;;6.82;4.30;;;20.00;95.80;;;;;;4992240;28;20041;-85
2023/06/16 11:40:06;;;;;;;9.23;4.68;;;20.00;96.40;;;;;;5038443;28;20106;-83
2023/06/16 11:42:32;;;;;;;12.65;4.53;;;19.90;96.30;;;;;;5044793;28;20056;-83
2023/06/16 11:44:59;;;;;;;11.18;4.85;;;19.90;96.60;;;;;;5059697;28;20041;-83
2023/06/16 11:47:25;;;;;;;9.27;4.38;;;19.90;96.70;;;;;;5057916;28;20048;-83
2023/06/16 11:49:54;;;;;;;8.43;4.85;;;19.90;96.80;;;;;;5018738;28;20040;-83
2023/06/16 11:52:21;;;;;;;8.30;4.45;;;19.90;97.50;;;;;;5039579;28;20052;-83
2023/06/16 11:54:47;;;;;;;5.57;4.20;;;19.90;97.40;;;;;;5053574;28;20076;-85
2023/06/16 11:57:13;;;;;;;7.13;4.20;;;19.90;97.60;;;;;;5022313;28;20131;-83
2023/06/16 11:59:40;;;;;;;6.97;4.70;;;19.80;97.70;;;;;;5040301;28;20146;-85
2023/06/16 12:02:08;;;;;;;9.52;4.70;;;19.90;97.70;;;;;;5065919;28;20104;-86
2023/06/16 12:04:33;;;;;;;6.88;4.80;;;19.90;97.80;;;;;;5037072;28;20041;-86
2023/06/16 12:06:59;;;;;;;6.63;4.32;;;20.00;97.70;;;;;;5057661;28;20071;-87
2023/06/16 12:09:36;;;;;;;6.63;4.40;;;20.00;98.30;;;;;;5055078;28;20057;-84
2023/06/16 12:12:13;;;;;;;6.72;4.47;;;20.00;97.50;;;;;;5038233;28;20041;-83
2023/06/16 12:14:42;;;;;;;4.93;4.18;;;20.20;97.50;;;;;;5041060;28;20136;-85
2023/06/16 12:17:08;;;;;;;;;;;20.20;97.40;;;;;;5031577;28;20056;-82
2023/06/16 12:19:34;;;;;;;7.50;4.32;;;20.30;97.60;;;;;;5040698;28;19920;-86
2023/06/16 12:22:04;;;;;;;7.18;4.70;;;20.40;98.10;;;;;;5027583;28;20044;-84
2023/06/16 12:24:30;;;;;;;5.85;4.30;;;20.40;98.30;;;;;;5046141;28;20045;-85
2023/06/16 12:27:03;;;;;;;7.47;4.50;;;20.50;98.40;;;;;;5055974;28;20110;-84
2023/06/16 12:29:28;;;;;;;8.57;4.95;;;20.50;98.70;;;;;;5045758;28;20041;-85
2023/06/16 12:31:56;;;;;;;6.70;4.55;;;20.60;98.80;;;;;;5018965;28;20079;-81
2023/06/16 12:34:22;;;;;;;7.82;4.60;;;20.60;99.30;;;;;;5049536;28;20490;-84
2023/06/16 12:36:48;;;;;;;9.40;5.05;;;20.60;99.20;;;;;;5041112;28;20049;-82
2023/06/16 12:39:17;;;;;;;8.88;4.97;;;20.70;98.90;;;;;;5026900;28;20120;-82
2023/06/16 12:42:06;;;;;;;6.95;4.63;;;20.70;98.80;;;;;;5033491;28;20046;-82
2023/06/16 12:44:42;;;;;;;9.50;4.70;;;20.80;98.70;;;;;;5032219;28;20037;-83
2023/06/16 12:47:08;;;;;;;8.93;4.50;;;20.80;98.90;;;;;;5038153;28;20038;-81